sensor_id;sensor_type;location;lat;lon;timestamp;P1;durP1;ratioP1;P2;durP2;ratioP2
24216;SDS011;12356;49.386;8.688;2023-10-19T00:02:18;11.15;;;8.23;;
24216;SDS011;12356;49.386;8.688;2023-10-19T00:04:49;12.88;;;8.27;;
24216;SDS011;12356;49.386;8.688;2023-10-19T00:07:19;11.75;;;7.80;;
24216;SDS011;12356;49.386;8.688;2023-10-19T00:09:50;12.25;;;8.32;;
24216;SDS011;12356;49.386;8.688;2023-10-19T00:12:23;14.25;;;9.10;;
24216;SDS011;12356;49.386;8.688;2023-10-19T00:14:54;13.90;;;8.60;;
24216;SDS011;12356;49.386;8.688;2023-10-19T00:17:24;11.45;;;9.00;;
24216;SDS011;12356;49.386;8.688;2023-10-19T00:19:57;13.25;;;8.90;;
24216;SDS011;12356;49.386;8.688;2023-10-19T00:22:35;11.90;;;9.18;;
24216;SDS011;12356;49.386;8.688;2023-10-19T00:25:06;17.08;;;10.82;;
24216;SDS011;12356;49.386;8.688;2023-10-19T00:30:09;17.15;;;12.20;;
24216;SDS011;12356;49.386;8.688;2023-10-19T00:32:40;18.17;;;12.27;;
24216;SDS011;12356;49.386;8.688;2023-10-19T00:35:11;19.20;;;12.52;;
24216;SDS011;12356;49.386;8.688;2023-10-19T00:37:57;19.70;;;12.70;;
24216;SDS011;12356;49.386;8.688;2023-10-19T00:40:51;15.35;;;12.00;;
24216;SDS011;12356;49.386;8.688;2023-10-19T00:43:27;17.52;;;12.27;;
24216;SDS011;12356;49.386;8.688;2023-10-19T00:46:13;21.77;;;12.55;;
24216;SDS011;12356;49.386;8.688;2023-10-19T00:48:49;18.00;;;11.75;;
24216;SDS011;12356;49.386;8.688;2023-10-19T00:51:27;19.35;;;11.23;;
24216;SDS011;12356;49.386;8.688;2023-10-19T00:54:04;15.88;;;11.00;;
24216;SDS011;12356;49.386;8.688;2023-10-19T00:56:45;14.60;;;11.50;;
24216;SDS011;12356;49.386;8.688;2023-10-19T00:59:19;16.17;;;11.43;;
24216;SDS011;12356;49.386;8.688;2023-10-19T01:02:00;14.25;;;11.00;;
24216;SDS011;12356;49.386;8.688;2023-10-19T01:04:47;14.75;;;10.95;;
24216;SDS011;12356;49.386;8.688;2023-10-19T01:07:35;15.10;;;10.45;;
24216;SDS011;12356;49.386;8.688;2023-10-19T01:10:08;14.45;;;10.55;;
24216;SDS011;12356;49.386;8.688;2023-10-19T01:12:42;13.35;;;10.02;;
24216;SDS011;12356;49.386;8.688;2023-10-19T01:15:14;13.85;;;10.02;;
24216;SDS011;12356;49.386;8.688;2023-10-19T01:17:58;14.73;;;10.88;;
24216;SDS011;12356;49.386;8.688;2023-10-19T01:20:30;14.35;;;10.43;;
24216;SDS011;12356;49.386;8.688;2023-10-19T01:23:05;13.02;;;10.15;;
24216;SDS011;12356;49.386;8.688;2023-10-19T01:28:20;12.88;;;10.30;;
24216;SDS011;12356;49.386;8.688;2023-10-19T01:30:55;16.35;;;10.27;;
24216;SDS011;12356;49.386;8.688;2023-10-19T01:33:26;14.20;;;10.18;;
24216;SDS011;12356;49.386;8.688;2023-10-19T01:35:58;13.73;;;10.30;;
24216;SDS011;12356;49.386;8.688;2023-10-19T01:38:41;15.27;;;10.50;;
24216;SDS011;12356;49.386;8.688;2023-10-19T01:41:12;15.32;;;11.10;;
24216;SDS011;12356;49.386;8.688;2023-10-19T01:43:43;16.75;;;10.90;;
24216;SDS011;12356;49.386;8.688;2023-10-19T01:46:16;14.27;;;11.43;;
24216;SDS011;12356;49.386;8.688;2023-10-19T01:48:54;14.30;;;10.52;;
24216;SDS011;12356;49.386;8.688;2023-10-19T01:51:28;13.90;;;10.57;;
24216;SDS011;12356;49.386;8.688;2023-10-19T01:54:03;13.52;;;9.77;;
24216;SDS011;12356;49.386;8.688;2023-10-19T01:56:34;14.00;;;10.55;;
24216;SDS011;12356;49.386;8.688;2023-10-19T01:59:05;13.07;;;10.07;;
24216;SDS011;12356;49.386;8.688;2023-10-19T02:01:39;13.77;;;9.52;;
24216;SDS011;12356;49.386;8.688;2023-10-19T02:04:12;14.55;;;9.75;;
24216;SDS011;12356;49.386;8.688;2023-10-19T02:06:43;12.73;;;9.68;;
24216;SDS011;12356;49.386;8.688;2023-10-19T02:09:16;14.57;;;9.52;;
24216;SDS011;12356;49.386;8.688;2023-10-19T02:11:48;13.00;;;9.57;;
24216;SDS011;12356;49.386;8.688;2023-10-19T02:14:19;15.90;;;10.27;;
24216;SDS011;12356;49.386;8.688;2023-10-19T02:16:52;12.80;;;9.85;;
24216;SDS011;12356;49.386;8.688;2023-10-19T02:19:26;14.13;;;10.52;;
24216;SDS011;12356;49.386;8.688;2023-10-19T02:22:00;14.65;;;10.20;;
24216;SDS011;12356;49.386;8.688;2023-10-19T02:24:38;16.52;;;10.70;;
24216;SDS011;12356;49.386;8.688;2023-10-19T02:27:09;13.48;;;10.77;;
24216;SDS011;12356;49.386;8.688;2023-10-19T02:29:39;14.80;;;10.95;;
24216;SDS011;12356;49.386;8.688;2023-10-19T02:32:11;15.30;;;10.70;;
24216;SDS011;12356;49.386;8.688;2023-10-19T02:34:42;16.17;;;10.50;;
24216;SDS011;12356;49.386;8.688;2023-10-19T02:37:12;15.52;;;11.32;;
24216;SDS011;12356;49.386;8.688;2023-10-19T02:39:44;13.55;;;11.02;;
24216;SDS011;12356;49.386;8.688;2023-10-19T02:42:14;17.13;;;11.40;;
24216;SDS011;12356;49.386;8.688;2023-10-19T02:44:45;16.63;;;11.00;;
24216;SDS011;12356;49.386;8.688;2023-10-19T02:47:15;15.48;;;11.50;;
24216;SDS011;12356;49.386;8.688;2023-10-19T02:49:47;15.38;;;11.82;;
24216;SDS011;12356;49.386;8.688;2023-10-19T02:52:21;15.27;;;11.32;;
24216;SDS011;12356;49.386;8.688;2023-10-19T02:54:52;14.23;;;10.85;;
24216;SDS011;12356;49.386;8.688;2023-10-19T02:57:26;18.15;;;11.57;;
24216;SDS011;12356;49.386;8.688;2023-10-19T02:59:57;15.95;;;11.15;;
24216;SDS011;12356;49.386;8.688;2023-10-19T03:02:29;15.55;;;11.45;;
24216;SDS011;12356;49.386;8.688;2023-10-19T03:05:00;15.93;;;11.60;;
24216;SDS011;12356;49.386;8.688;2023-10-19T03:07:31;16.88;;;10.98;;
24216;SDS011;12356;49.386;8.688;2023-10-19T03:10:01;18.90;;;11.43;;
24216;SDS011;12356;49.386;8.688;2023-10-19T03:12:32;18.38;;;11.95;;
24216;SDS011;12356;49.386;8.688;2023-10-19T03:15:03;17.48;;;11.85;;
24216;SDS011;12356;49.386;8.688;2023-10-19T03:17:35;20.90;;;13.00;;
24216;SDS011;12356;49.386;8.688;2023-10-19T03:20:06;17.73;;;12.35;;
24216;SDS011;12356;49.386;8.688;2023-10-19T03:22:37;20.45;;;12.43;;
24216;SDS011;12356;49.386;8.688;2023-10-19T03:25:10;14.50;;;10.70;;
24216;SDS011;12356;49.386;8.688;2023-10-19T03:27:59;15.57;;;11.38;;
24216;SDS011;12356;49.386;8.688;2023-10-19T03:30:38;14.82;;;10.88;;
24216;SDS011;12356;49.386;8.688;2023-10-19T03:33:08;16.67;;;11.48;;
24216;SDS011;12356;49.386;8.688;2023-10-19T03:35:39;15.45;;;10.98;;
24216;SDS011;12356;49.386;8.688;2023-10-19T03:38:11;16.30;;;11.15;;
24216;SDS011;12356;49.386;8.688;2023-10-19T03:40:46;16.35;;;11.98;;
24216;SDS011;12356;49.386;8.688;2023-10-19T03:43:22;16.98;;;10.10;;
24216;SDS011;12356;49.386;8.688;2023-10-19T03:45:52;14.40;;;9.27;;
24216;SDS011;12356;49.386;8.688;2023-10-19T03:48:24;14.45;;;9.73;;
24216;SDS011;12356;49.386;8.688;2023-10-19T03:51:04;12.35;;;8.82;;
24216;SDS011;12356;49.386;8.688;2023-10-19T03:53:35;14.30;;;8.93;;
24216;SDS011;12356;49.386;8.688;2023-10-19T03:56:06;15.70;;;9.00;;
24216;SDS011;12356;49.386;8.688;2023-10-19T03:58:40;11.52;;;8.05;;
24216;SDS011;12356;49.386;8.688;2023-10-19T04:01:14;13.48;;;8.98;;
24216;SDS011;12356;49.386;8.688;2023-10-19T04:03:46;11.38;;;8.82;;
24216;SDS011;12356;49.386;8.688;2023-10-19T04:06:17;12.13;;;8.52;;
24216;SDS011;12356;49.386;8.688;2023-10-19T04:08:50;12.85;;;8.02;;
24216;SDS011;12356;49.386;8.688;2023-10-19T04:11:21;10.52;;;7.00;;
24216;SDS011;12356;49.386;8.688;2023-10-19T04:13:51;9.55;;;6.53;;
24216;SDS011;12356;49.386;8.688;2023-10-19T04:16:23;11.27;;;6.70;;
24216;SDS011;12356;49.386;8.688;2023-10-19T04:18:53;10.27;;;6.63;;
24216;SDS011;12356;49.386;8.688;2023-10-19T04:21:24;7.75;;;5.82;;
24216;SDS011;12356;49.386;8.688;2023-10-19T04:23:55;7.72;;;5.70;;
24216;SDS011;12356;49.386;8.688;2023-10-19T04:26:27;9.50;;;5.65;;
24216;SDS011;12356;49.386;8.688;2023-10-19T04:28:58;6.90;;;5.30;;
24216;SDS011;12356;49.386;8.688;2023-10-19T04:31:29;8.55;;;5.43;;
24216;SDS011;12356;49.386;8.688;2023-10-19T04:34:00;7.43;;;5.38;;
24216;SDS011;12356;49.386;8.688;2023-10-19T04:36:37;6.80;;;5.57;;
24216;SDS011;12356;49.386;8.688;2023-10-19T04:39:09;7.18;;;5.35;;
24216;SDS011;12356;49.386;8.688;2023-10-19T04:41:43;10.15;;;5.80;;
24216;SDS011;12356;49.386;8.688;2023-10-19T04:44:14;8.02;;;6.05;;
24216;SDS011;12356;49.386;8.688;2023-10-19T04:46:45;8.07;;;5.13;;
24216;SDS011;12356;49.386;8.688;2023-10-19T04:49:16;8.10;;;5.40;;
24216;SDS011;12356;49.386;8.688;2023-10-19T04:51:46;7.53;;;5.68;;
24216;SDS011;12356;49.386;8.688;2023-10-19T04:54:17;12.18;;;5.82;;
24216;SDS011;12356;49.386;8.688;2023-10-19T04:56:48;9.52;;;6.43;;
24216;SDS011;12356;49.386;8.688;2023-10-19T04:59:18;11.43;;;6.63;;
24216;SDS011;12356;49.386;8.688;2023-10-19T05:01:49;13.77;;;6.68;;
24216;SDS011;12356;49.386;8.688;2023-10-19T05:04:20;12.23;;;6.60;;
24216;SDS011;12356;49.386;8.688;2023-10-19T05:06:50;8.85;;;6.63;;
24216;SDS011;12356;49.386;8.688;2023-10-19T05:09:21;10.80;;;7.07;;
24216;SDS011;12356;49.386;8.688;2023-10-19T05:11:52;10.15;;;7.15;;
24216;SDS011;12356;49.386;8.688;2023-10-19T05:14:22;10.32;;;7.38;;
24216;SDS011;12356;49.386;8.688;2023-10-19T05:16:54;12.20;;;7.88;;
24216;SDS011;12356;49.386;8.688;2023-10-19T05:19:24;9.93;;;7.00;;
24216;SDS011;12356;49.386;8.688;2023-10-19T05:21:55;9.57;;;7.22;;
24216;SDS011;12356;49.386;8.688;2023-10-19T05:24:25;12.10;;;8.00;;
24216;SDS011;12356;49.386;8.688;2023-10-19T05:26:57;12.18;;;8.07;;
24216;SDS011;12356;49.386;8.688;2023-10-19T05:29:28;13.38;;;7.35;;
24216;SDS011;12356;49.386;8.688;2023-10-19T05:32:02;9.85;;;7.88;;
24216;SDS011;12356;49.386;8.688;2023-10-19T05:34:33;14.13;;;8.55;;
24216;SDS011;12356;49.386;8.688;2023-10-19T05:37:05;13.35;;;9.02;;
24216;SDS011;12356;49.386;8.688;2023-10-19T05:39:36;11.93;;;8.57;;
24216;SDS011;12356;49.386;8.688;2023-10-19T05:42:06;11.90;;;8.68;;
24216;SDS011;12356;49.386;8.688;2023-10-19T05:44:37;12.73;;;8.77;;
24216;SDS011;12356;49.386;8.688;2023-10-19T05:47:07;13.25;;;8.88;;
24216;SDS011;12356;49.386;8.688;2023-10-19T05:49:38;12.55;;;9.70;;
24216;SDS011;12356;49.386;8.688;2023-10-19T05:52:09;13.00;;;9.80;;
24216;SDS011;12356;49.386;8.688;2023-10-19T05:54:40;13.32;;;9.38;;
24216;SDS011;12356;49.386;8.688;2023-10-19T05:57:11;16.02;;;9.88;;
24216;SDS011;12356;49.386;8.688;2023-10-19T05:59:41;13.52;;;9.35;;
24216;SDS011;12356;49.386;8.688;2023-10-19T06:02:12;13.95;;;9.65;;
24216;SDS011;12356;49.386;8.688;2023-10-19T06:04:42;14.80;;;9.43;;
24216;SDS011;12356;49.386;8.688;2023-10-19T06:07:13;15.95;;;9.35;;
24216;SDS011;12356;49.386;8.688;2023-10-19T06:09:43;15.95;;;10.02;;
24216;SDS011;12356;49.386;8.688;2023-10-19T06:12:14;16.15;;;9.40;;
24216;SDS011;12356;49.386;8.688;2023-10-19T06:14:45;16.38;;;9.68;;
24216;SDS011;12356;49.386;8.688;2023-10-19T06:17:15;15.57;;;9.77;;
24216;SDS011;12356;49.386;8.688;2023-10-19T06:19:49;17.25;;;9.07;;
24216;SDS011;12356;49.386;8.688;2023-10-19T06:22:19;17.33;;;9.43;;
24216;SDS011;12356;49.386;8.688;2023-10-19T06:24:50;13.60;;;9.32;;
24216;SDS011;12356;49.386;8.688;2023-10-19T06:27:21;13.02;;;8.82;;
24216;SDS011;12356;49.386;8.688;2023-10-19T06:29:53;13.55;;;9.32;;
24216;SDS011;12356;49.386;8.688;2023-10-19T06:32:23;14.38;;;9.18;;
24216;SDS011;12356;49.386;8.688;2023-10-19T06:34:54;16.30;;;8.95;;
24216;SDS011;12356;49.386;8.688;2023-10-19T06:37:26;15.55;;;9.55;;
24216;SDS011;12356;49.386;8.688;2023-10-19T06:39:57;13.68;;;8.70;;
24216;SDS011;12356;49.386;8.688;2023-10-19T06:42:31;11.60;;;8.10;;
24216;SDS011;12356;49.386;8.688;2023-10-19T06:45:02;13.32;;;8.80;;
24216;SDS011;12356;49.386;8.688;2023-10-19T06:47:33;14.30;;;9.07;;
24216;SDS011;12356;49.386;8.688;2023-10-19T06:50:08;14.52;;;9.15;;
24216;SDS011;12356;49.386;8.688;2023-10-19T06:52:40;13.10;;;9.20;;
24216;SDS011;12356;49.386;8.688;2023-10-19T06:55:11;13.68;;;9.13;;
24216;SDS011;12356;49.386;8.688;2023-10-19T06:57:47;14.25;;;9.43;;
24216;SDS011;12356;49.386;8.688;2023-10-19T07:00:23;13.23;;;8.85;;
24216;SDS011;12356;49.386;8.688;2023-10-19T07:02:57;11.07;;;8.75;;
24216;SDS011;12356;49.386;8.688;2023-10-19T07:05:32;12.68;;;8.73;;
24216;SDS011;12356;49.386;8.688;2023-10-19T07:08:03;13.20;;;8.77;;
24216;SDS011;12356;49.386;8.688;2023-10-19T07:10:36;11.88;;;8.82;;
24216;SDS011;12356;49.386;8.688;2023-10-19T07:13:07;13.88;;;9.07;;
24216;SDS011;12356;49.386;8.688;2023-10-19T07:15:38;15.95;;;8.57;;
24216;SDS011;12356;49.386;8.688;2023-10-19T07:18:11;13.75;;;8.85;;
24216;SDS011;12356;49.386;8.688;2023-10-19T07:20:43;13.45;;;8.90;;
24216;SDS011;12356;49.386;8.688;2023-10-19T07:23:18;16.02;;;9.60;;
24216;SDS011;12356;49.386;8.688;2023-10-19T07:25:52;16.23;;;9.73;;
24216;SDS011;12356;49.386;8.688;2023-10-19T07:28:24;13.18;;;8.70;;
24216;SDS011;12356;49.386;8.688;2023-10-19T07:30:56;16.85;;;9.10;;
24216;SDS011;12356;49.386;8.688;2023-10-19T07:33:26;12.18;;;8.75;;
24216;SDS011;12356;49.386;8.688;2023-10-19T07:35:58;14.32;;;9.23;;
24216;SDS011;12356;49.386;8.688;2023-10-19T07:38:36;14.45;;;8.77;;
24216;SDS011;12356;49.386;8.688;2023-10-19T07:41:08;12.70;;;8.40;;
24216;SDS011;12356;49.386;8.688;2023-10-19T07:43:42;17.13;;;8.60;;
24216;SDS011;12356;49.386;8.688;2023-10-19T07:46:14;13.40;;;8.15;;
24216;SDS011;12356;49.386;8.688;2023-10-19T07:48:44;12.85;;;8.13;;
24216;SDS011;12356;49.386;8.688;2023-10-19T07:51:15;11.10;;;7.43;;
24216;SDS011;12356;49.386;8.688;2023-10-19T07:53:46;13.15;;;7.63;;
24216;SDS011;12356;49.386;8.688;2023-10-19T07:56:16;11.10;;;7.95;;
24216;SDS011;12356;49.386;8.688;2023-10-19T07:58:47;11.13;;;7.40;;
24216;SDS011;12356;49.386;8.688;2023-10-19T08:01:17;11.85;;;7.80;;
24216;SDS011;12356;49.386;8.688;2023-10-19T08:03:48;13.88;;;7.85;;
24216;SDS011;12356;49.386;8.688;2023-10-19T08:06:18;16.33;;;8.80;;
24216;SDS011;12356;49.386;8.688;2023-10-19T08:08:49;11.68;;;8.10;;
24216;SDS011;12356;49.386;8.688;2023-10-19T08:11:20;12.65;;;8.30;;
24216;SDS011;12356;49.386;8.688;2023-10-19T08:13:51;9.77;;;7.50;;
24216;SDS011;12356;49.386;8.688;2023-10-19T08:16:22;14.32;;;7.90;;
24216;SDS011;12356;49.386;8.688;2023-10-19T08:18:54;13.70;;;7.70;;
24216;SDS011;12356;49.386;8.688;2023-10-19T08:21:24;12.88;;;7.07;;
24216;SDS011;12356;49.386;8.688;2023-10-19T08:23:58;12.13;;;7.30;;
24216;SDS011;12356;49.386;8.688;2023-10-19T08:26:29;13.45;;;7.03;;
24216;SDS011;12356;49.386;8.688;2023-10-19T08:29:00;12.60;;;7.78;;
24216;SDS011;12356;49.386;8.688;2023-10-19T08:31:30;12.57;;;7.68;;
24216;SDS011;12356;49.386;8.688;2023-10-19T08:34:01;13.00;;;7.40;;
24216;SDS011;12356;49.386;8.688;2023-10-19T08:36:32;13.18;;;7.65;;
24216;SDS011;12356;49.386;8.688;2023-10-19T08:39:05;10.85;;;7.30;;
24216;SDS011;12356;49.386;8.688;2023-10-19T08:41:36;11.25;;;7.22;;
24216;SDS011;12356;49.386;8.688;2023-10-19T08:44:07;14.23;;;7.90;;
24216;SDS011;12356;49.386;8.688;2023-10-19T08:46:41;14.07;;;7.65;;
24216;SDS011;12356;49.386;8.688;2023-10-19T08:49:14;14.35;;;7.20;;
24216;SDS011;12356;49.386;8.688;2023-10-19T08:51:46;12.48;;;7.13;;
24216;SDS011;12356;49.386;8.688;2023-10-19T08:54:17;13.57;;;6.88;;
24216;SDS011;12356;49.386;8.688;2023-10-19T08:56:48;14.75;;;7.30;;
24216;SDS011;12356;49.386;8.688;2023-10-19T08:59:19;11.70;;;6.63;;
24216;SDS011;12356;49.386;8.688;2023-10-19T09:01:49;9.27;;;6.50;;
24216;SDS011;12356;49.386;8.688;2023-10-19T09:04:20;8.80;;;6.70;;
24216;SDS011;12356;49.386;8.688;2023-10-19T09:06:53;14.32;;;6.10;;
24216;SDS011;12356;49.386;8.688;2023-10-19T09:09:26;9.70;;;6.28;;
24216;SDS011;12356;49.386;8.688;2023-10-19T09:12:02;9.25;;;5.70;;
24216;SDS011;12356;49.386;8.688;2023-10-19T09:14:34;9.75;;;5.78;;
24216;SDS011;12356;49.386;8.688;2023-10-19T09:17:13;8.50;;;5.45;;
24216;SDS011;12356;49.386;8.688;2023-10-19T09:19:45;10.45;;;5.60;;
24216;SDS011;12356;49.386;8.688;2023-10-19T09:22:17;11.48;;;5.78;;
24216;SDS011;12356;49.386;8.688;2023-10-19T09:24:52;8.90;;;5.68;;
24216;SDS011;12356;49.386;8.688;2023-10-19T09:27:23;10.73;;;5.50;;
24216;SDS011;12356;49.386;8.688;2023-10-19T09:29:55;7.80;;;5.80;;
24216;SDS011;12356;49.386;8.688;2023-10-19T09:32:26;13.23;;;5.78;;
24216;SDS011;12356;49.386;8.688;2023-10-19T09:34:59;12.82;;;6.00;;
24216;SDS011;12356;49.386;8.688;2023-10-19T09:37:31;11.90;;;5.85;;
24216;SDS011;12356;49.386;8.688;2023-10-19T09:40:01;11.10;;;6.07;;
24216;SDS011;12356;49.386;8.688;2023-10-19T09:42:32;9.85;;;5.82;;
24216;SDS011;12356;49.386;8.688;2023-10-19T09:45:03;8.27;;;5.88;;
24216;SDS011;12356;49.386;8.688;2023-10-19T09:47:37;8.63;;;5.60;;
24216;SDS011;12356;49.386;8.688;2023-10-19T09:50:10;9.80;;;5.43;;
24216;SDS011;12356;49.386;8.688;2023-10-19T09:52:41;9.73;;;5.25;;
24216;SDS011;12356;49.386;8.688;2023-10-19T09:55:24;8.27;;;5.63;;
24216;SDS011;12356;49.386;8.688;2023-10-19T10:00:49;9.68;;;5.00;;
24216;SDS011;12356;49.386;8.688;2023-10-19T10:06:26;10.70;;;4.80;;
24216;SDS011;12356;49.386;8.688;2023-10-19T10:09:20;8.32;;;4.75;;
24216;SDS011;12356;49.386;8.688;2023-10-19T10:11:54;9.05;;;4.50;;
24216;SDS011;12356;49.386;8.688;2023-10-19T10:14:25;8.38;;;4.15;;
24216;SDS011;12356;49.386;8.688;2023-10-19T10:17:00;4.20;;;2.92;;
24216;SDS011;12356;49.386;8.688;2023-10-19T10:19:35;8.32;;;3.13;;
24216;SDS011;12356;49.386;8.688;2023-10-19T10:22:09;4.47;;;2.70;;
24216;SDS011;12356;49.386;8.688;2023-10-19T10:24:44;4.47;;;2.53;;
24216;SDS011;12356;49.386;8.688;2023-10-19T10:27:16;6.25;;;2.80;;
24216;SDS011;12356;49.386;8.688;2023-10-19T10:29:59;5.03;;;2.25;;
24216;SDS011;12356;49.386;8.688;2023-10-19T10:38:09;5.30;;;2.35;;
24216;SDS011;12356;49.386;8.688;2023-10-19T10:40:47;5.70;;;2.80;;
24216;SDS011;12356;49.386;8.688;2023-10-19T10:43:21;4.63;;;2.55;;
24216;SDS011;12356;49.386;8.688;2023-10-19T10:45:51;5.40;;;2.53;;
24216;SDS011;12356;49.386;8.688;2023-10-19T10:48:22;6.47;;;2.67;;
24216;SDS011;12356;49.386;8.688;2023-10-19T10:50:53;4.97;;;2.42;;
24216;SDS011;12356;49.386;8.688;2023-10-19T10:53:24;6.35;;;2.58;;
24216;SDS011;12356;49.386;8.688;2023-10-19T10:55:59;5.28;;;2.42;;
24216;SDS011;12356;49.386;8.688;2023-10-19T10:58:31;5.70;;;2.60;;
24216;SDS011;12356;49.386;8.688;2023-10-19T11:01:01;3.95;;;2.30;;
24216;SDS011;12356;49.386;8.688;2023-10-19T11:03:32;7.00;;;2.50;;
24216;SDS011;12356;49.386;8.688;2023-10-19T11:06:06;6.20;;;2.55;;
24216;SDS011;12356;49.386;8.688;2023-10-19T11:08:41;6.07;;;2.50;;
24216;SDS011;12356;49.386;8.688;2023-10-19T11:11:12;5.68;;;2.38;;
24216;SDS011;12356;49.386;8.688;2023-10-19T11:13:43;4.20;;;2.70;;
24216;SDS011;12356;49.386;8.688;2023-10-19T11:16:21;4.07;;;2.60;;
24216;SDS011;12356;49.386;8.688;2023-10-19T11:18:52;4.32;;;2.75;;
24216;SDS011;12356;49.386;8.688;2023-10-19T11:21:23;5.47;;;2.70;;
24216;SDS011;12356;49.386;8.688;2023-10-19T11:23:53;6.43;;;2.75;;
24216;SDS011;12356;49.386;8.688;2023-10-19T11:26:24;4.10;;;2.70;;
24216;SDS011;12356;49.386;8.688;2023-10-19T11:28:59;5.60;;;2.58;;
24216;SDS011;12356;49.386;8.688;2023-10-19T11:31:30;4.72;;;2.83;;
24216;SDS011;12356;49.386;8.688;2023-10-19T11:34:11;4.00;;;2.90;;
24216;SDS011;12356;49.386;8.688;2023-10-19T11:36:52;3.97;;;2.72;;
24216;SDS011;12356;49.386;8.688;2023-10-19T11:39:26;4.80;;;2.85;;
24216;SDS011;12356;49.386;8.688;2023-10-19T11:41:57;4.60;;;2.90;;
24216;SDS011;12356;49.386;8.688;2023-10-19T11:44:27;4.78;;;2.70;;
24216;SDS011;12356;49.386;8.688;2023-10-19T11:46:59;4.53;;;2.88;;
24216;SDS011;12356;49.386;8.688;2023-10-19T11:49:29;6.68;;;3.03;;
24216;SDS011;12356;49.386;8.688;2023-10-19T11:52:00;5.80;;;3.00;;
24216;SDS011;12356;49.386;8.688;2023-10-19T11:54:30;5.47;;;3.00;;
24216;SDS011;12356;49.386;8.688;2023-10-19T11:57:01;8.35;;;3.53;;
24216;SDS011;12356;49.386;8.688;2023-10-19T11:59:32;6.18;;;3.58;;
24216;SDS011;12356;49.386;8.688;2023-10-19T12:02:02;6.00;;;3.80;;
24216;SDS011;12356;49.386;8.688;2023-10-19T12:04:34;7.28;;;3.90;;
24216;SDS011;12356;49.386;8.688;2023-10-19T12:07:06;6.43;;;3.67;;
24216;SDS011;12356;49.386;8.688;2023-10-19T12:09:37;5.70;;;3.30;;
24216;SDS011;12356;49.386;8.688;2023-10-19T12:12:07;6.65;;;3.63;;
24216;SDS011;12356;49.386;8.688;2023-10-19T12:14:39;6.55;;;3.42;;
24216;SDS011;12356;49.386;8.688;2023-10-19T12:17:09;6.65;;;3.38;;
24216;SDS011;12356;49.386;8.688;2023-10-19T12:19:40;7.07;;;3.10;;
24216;SDS011;12356;49.386;8.688;2023-10-19T12:22:11;5.97;;;3.47;;
24216;SDS011;12356;49.386;8.688;2023-10-19T12:24:43;8.00;;;4.40;;
24216;SDS011;12356;49.386;8.688;2023-10-19T12:27:14;6.00;;;4.55;;
24216;SDS011;12356;49.386;8.688;2023-10-19T12:29:45;7.18;;;4.10;;
24216;SDS011;12356;49.386;8.688;2023-10-19T12:32:15;6.57;;;4.53;;
24216;SDS011;12356;49.386;8.688;2023-10-19T12:34:46;6.10;;;4.60;;
24216;SDS011;12356;49.386;8.688;2023-10-19T12:37:20;7.57;;;4.72;;
24216;SDS011;12356;49.386;8.688;2023-10-19T12:39:50;8.93;;;5.20;;
24216;SDS011;12356;49.386;8.688;2023-10-19T12:42:22;7.22;;;4.45;;
24216;SDS011;12356;49.386;8.688;2023-10-19T12:44:53;8.20;;;5.30;;
24216;SDS011;12356;49.386;8.688;2023-10-19T12:47:23;8.25;;;5.70;;
24216;SDS011;12356;49.386;8.688;2023-10-19T12:49:54;9.40;;;5.65;;
24216;SDS011;12356;49.386;8.688;2023-10-19T12:52:25;10.35;;;6.50;;
24216;SDS011;12356;49.386;8.688;2023-10-19T12:54:55;10.40;;;6.88;;
24216;SDS011;12356;49.386;8.688;2023-10-19T12:57:30;9.80;;;6.50;;
24216;SDS011;12356;49.386;8.688;2023-10-19T13:00:02;9.90;;;6.18;;
24216;SDS011;12356;49.386;8.688;2023-10-19T13:02:53;8.25;;;6.22;;
24216;SDS011;12356;49.386;8.688;2023-10-19T13:05:36;8.23;;;5.95;;
24216;SDS011;12356;49.386;8.688;2023-10-19T13:08:07;11.38;;;5.93;;
24216;SDS011;12356;49.386;8.688;2023-10-19T13:10:38;10.70;;;6.30;;
24216;SDS011;12356;49.386;8.688;2023-10-19T13:13:12;8.75;;;5.80;;
24216;SDS011;12356;49.386;8.688;2023-10-19T13:15:45;7.10;;;4.80;;
24216;SDS011;12356;49.386;8.688;2023-10-19T13:18:18;7.13;;;5.53;;
24216;SDS011;12356;49.386;8.688;2023-10-19T13:20:55;6.47;;;5.18;;
24216;SDS011;12356;49.386;8.688;2023-10-19T13:23:26;7.00;;;4.88;;
24216;SDS011;12356;49.386;8.688;2023-10-19T13:25:58;7.95;;;5.47;;
24216;SDS011;12356;49.386;8.688;2023-10-19T13:28:46;9.40;;;5.30;;
24216;SDS011;12356;49.386;8.688;2023-10-19T13:31:18;13.45;;;5.35;;
24216;SDS011;12356;49.386;8.688;2023-10-19T13:33:52;10.32;;;5.60;;
24216;SDS011;12356;49.386;8.688;2023-10-19T13:36:22;8.73;;;5.30;;
24216;SDS011;12356;49.386;8.688;2023-10-19T13:38:53;8.32;;;5.55;;
24216;SDS011;12356;49.386;8.688;2023-10-19T13:41:24;8.98;;;5.63;;
24216;SDS011;12356;49.386;8.688;2023-10-19T13:43:55;11.55;;;6.10;;
24216;SDS011;12356;49.386;8.688;2023-10-19T13:46:25;8.98;;;6.18;;
24216;SDS011;12356;49.386;8.688;2023-10-19T13:48:57;7.38;;;5.82;;
24216;SDS011;12356;49.386;8.688;2023-10-19T13:51:28;9.48;;;6.20;;
24216;SDS011;12356;49.386;8.688;2023-10-19T13:53:59;9.07;;;5.90;;
24216;SDS011;12356;49.386;8.688;2023-10-19T13:56:30;8.48;;;5.90;;
24216;SDS011;12356;49.386;8.688;2023-10-19T13:59:00;8.93;;;5.55;;
24216;SDS011;12356;49.386;8.688;2023-10-19T14:01:31;7.47;;;5.78;;
24216;SDS011;12356;49.386;8.688;2023-10-19T14:04:02;8.63;;;6.25;;
24216;SDS011;12356;49.386;8.688;2023-10-19T14:06:32;7.97;;;5.38;;
24216;SDS011;12356;49.386;8.688;2023-10-19T14:09:03;7.78;;;6.07;;
24216;SDS011;12356;49.386;8.688;2023-10-19T14:11:35;8.55;;;6.07;;
24216;SDS011;12356;49.386;8.688;2023-10-19T14:14:06;7.68;;;6.00;;
24216;SDS011;12356;49.386;8.688;2023-10-19T14:16:37;7.75;;;5.85;;
24216;SDS011;12356;49.386;8.688;2023-10-19T14:19:09;10.27;;;5.90;;
24216;SDS011;12356;49.386;8.688;2023-10-19T14:21:39;5.40;;;4.28;;
24216;SDS011;12356;49.386;8.688;2023-10-19T14:24:10;8.73;;;4.80;;
24216;SDS011;12356;49.386;8.688;2023-10-19T14:26:41;6.88;;;5.05;;
24216;SDS011;12356;49.386;8.688;2023-10-19T14:29:12;7.20;;;4.47;;
24216;SDS011;12356;49.386;8.688;2023-10-19T14:31:43;7.63;;;4.40;;
24216;SDS011;12356;49.386;8.688;2023-10-19T14:34:14;5.25;;;3.40;;
24216;SDS011;12356;49.386;8.688;2023-10-19T14:36:45;5.45;;;4.10;;
24216;SDS011;12356;49.386;8.688;2023-10-19T14:39:15;5.40;;;4.63;;
24216;SDS011;12356;49.386;8.688;2023-10-19T14:41:49;7.15;;;4.65;;
24216;SDS011;12356;49.386;8.688;2023-10-19T14:44:20;6.70;;;4.70;;
24216;SDS011;12356;49.386;8.688;2023-10-19T14:46:52;6.40;;;4.60;;
24216;SDS011;12356;49.386;8.688;2023-10-19T14:49:22;7.75;;;5.00;;
24216;SDS011;12356;49.386;8.688;2023-10-19T14:51:53;6.53;;;5.32;;
24216;SDS011;12356;49.386;8.688;2023-10-19T14:54:23;8.40;;;4.80;;
24216;SDS011;12356;49.386;8.688;2023-10-19T14:56:54;9.50;;;4.88;;
24216;SDS011;12356;49.386;8.688;2023-10-19T14:59:25;8.73;;;5.10;;
24216;SDS011;12356;49.386;8.688;2023-10-19T15:01:55;9.38;;;5.32;;
24216;SDS011;12356;49.386;8.688;2023-10-19T15:04:26;8.43;;;5.60;;
24216;SDS011;12356;49.386;8.688;2023-10-19T15:06:57;10.02;;;5.90;;
24216;SDS011;12356;49.386;8.688;2023-10-19T15:09:28;8.63;;;5.72;;
24216;SDS011;12356;49.386;8.688;2023-10-19T15:11:58;9.10;;;6.70;;
24216;SDS011;12356;49.386;8.688;2023-10-19T15:14:29;9.05;;;6.72;;
24216;SDS011;12356;49.386;8.688;2023-10-19T15:17:00;9.68;;;6.68;;
24216;SDS011;12356;49.386;8.688;2023-10-19T15:19:31;8.55;;;6.07;;
24216;SDS011;12356;49.386;8.688;2023-10-19T15:22:01;8.50;;;5.90;;
24216;SDS011;12356;49.386;8.688;2023-10-19T15:24:32;7.68;;;5.05;;
24216;SDS011;12356;49.386;8.688;2023-10-19T15:27:03;8.25;;;5.40;;